Time;durP1;ratioP1;P1;durP2;ratioP2;P2;SDS_P1;SDS_P2;PMS_P1;PMS_P2;Temp;Humidity;BMP_temperature;BMP_pressure;BME280_temperature;BME280_humidity;BME280_pressure;Samples;Min_cycle;Max_cycle;Signal;HPM_P1;HPM_P2
2023/02/13 00:02:06;;;;;;;5.07;3.15;;;5.90;99.90;;;;;;4957180;29;20039;-88
2023/02/13 00:04:31;;;;;;;5.15;3.38;;;5.90;99.90;;;;;;4958357;29;20031;-86
2023/02/13 02:45:29;;;;;;;5.07;2.85;;;5.10;99.90;;;;;;5178760;23;20066;-85
2023/02/13 02:51:20;;;;;;;4.78;2.83;;;5.00;99.90;;;;;;4984303;28;20057;-83
2023/02/13 03:33:48;;;;;;;4.60;2.65;;;4.80;99.90;;;;;;5432954;23;20050;-86
2023/02/13 03:39:43;;;;;;;4.43;3.03;;;4.80;99.90;;;;;;4998427;28;20056;-87
2023/02/13 03:42:20;;;;;;;5.35;2.97;;;4.80;99.90;;;;;;4991900;28;20045;-87
2023/02/13 04:49:29;;;;;;;3.05;2.10;;;4.50;99.90;;;;;;4994789;28;20061;-86
2023/02/13 04:52:18;;;;;;;5.93;2.85;;;4.40;99.90;;;;;;4979687;28;20026;-85
2023/02/13 04:54:44;;;;;;;4.28;2.65;;;4.40;99.90;;;;;;4979878;28;20031;-84
2023/02/13 04:57:10;;;;;;;5.10;2.92;;;4.30;99.90;;;;;;4997185;28;20133;-84
2023/02/13 05:39:34;;;;;;;4.30;2.72;;;4.20;99.90;;;;;;5400171;23;20072;-82
2023/02/13 05:41:59;;;;;;;4.15;2.53;;;4.20;99.90;;;;;;5019786;28;20029;-82
2023/02/13 05:44:25;;;;;;;3.75;2.60;;;4.20;99.90;;;;;;5018997;28;20037;-82
2023/02/13 05:46:52;;;;;;;4.72;2.50;;;4.20;99.90;;;;;;5009546;28;20126;-81
2023/02/13 05:49:17;;;;;;;4.47;2.70;;;4.20;99.90;;;;;;4992647;28;20125;-82
2023/02/13 05:51:45;;;;;;;4.82;2.72;;;4.20;99.90;;;;;;5007737;28;20666;-82
2023/02/13 05:54:11;;;;;;;4.53;2.42;;;4.30;99.90;;;;;;5001004;28;20041;-82
2023/02/13 05:56:36;;;;;;;3.97;2.70;;;4.30;99.90;;;;;;5004464;28;20030;-81
2023/02/13 05:59:02;;;;;;;5.07;3.05;;;4.20;99.90;;;;;;5001836;28;20076;-83
2023/02/13 06:01:28;;;;;;;3.33;2.40;;;4.20;99.90;;;;;;5005743;28;20026;-82
2023/02/13 06:03:54;;;;;;;4.43;2.40;;;4.20;99.90;;;;;;5006375;28;20056;-84
2023/02/13 06:09:57;;;;;;;4.40;2.42;;;4.10;99.90;;;;;;4881030;29;20024;-83
2023/02/13 06:12:22;;;;;;;4.28;2.55;;;4.20;99.90;;;;;;5000154;28;20022;-83
2023/02/13 06:14:48;;;;;;;4.07;2.45;;;4.20;99.90;;;;;;5001042;28;20026;-84
2023/02/13 06:17:14;;;;;;;4.70;2.83;;;4.10;99.90;;;;;;5014431;28;20057;-84
2023/02/13 06:19:39;;;;;;;3.50;2.65;;;4.10;99.90;;;;;;5015146;28;20037;-83
2023/02/13 06:22:05;;;;;;;3.95;2.60;;;4.10;99.90;;;;;;5007866;28;20053;-85
2023/02/13 06:24:31;;;;;;;3.10;2.10;;;4.10;99.90;;;;;;5015761;28;20457;-85
2023/02/13 06:26:58;;;;;;;4.68;3.05;;;4.00;99.90;;;;;;4991525;28;20041;-86
2023/02/13 06:29:31;;;;;;;4.72;2.70;;;4.00;99.90;;;;;;5003932;28;20022;-86
2023/02/13 06:32:06;;;;;;;5.10;2.95;;;4.00;99.90;;;;;;4995733;28;20027;-86
2023/02/13 06:34:34;;;;;;;3.85;2.45;;;4.10;99.90;;;;;;5018819;28;20030;-86
2023/02/13 06:37:00;;;;;;;4.35;2.72;;;4.00;99.90;;;;;;4991161;28;20487;-85
2023/02/13 06:43:13;;;;;;;4.32;2.70;;;4.00;99.90;;;;;;5030947;28;20048;-91
2023/02/13 06:49:25;;;;;;;4.20;2.25;;;4.10;99.90;;;;;;4936883;29;20027;-85
2023/02/13 06:51:56;;;;;;;4.80;2.92;;;4.10;99.90;;;;;;4982390;28;20569;-85
2023/02/13 06:54:24;;;;;;;4.93;3.50;;;4.10;99.90;;;;;;5010641;28;20018;-86
2023/02/13 06:57:03;;;;;;;5.35;3.38;;;4.00;99.90;;;;;;4994890;28;20022;-86
2023/02/13 06:59:32;;;;;;;3.42;2.47;;;3.90;99.90;;;;;;5014836;28;20410;-85
2023/02/13 07:02:05;;;;;;;8.15;3.10;;;4.00;99.90;;;;;;5005106;28;20049;-86
2023/02/13 07:19:49;;;;;;;4.43;2.75;;;4.10;99.90;;;;;;5017952;28;20081;-84
2023/02/13 07:22:27;;;;;;;4.82;2.78;;;4.10;99.90;;;;;;5012383;28;20510;-84
2023/02/13 07:25:00;;;;;;;5.35;3.03;;;4.10;99.90;;;;;;4996277;28;20122;-83
2023/02/13 07:28:23;;;;;;;4.07;2.65;;;4.10;99.90;;;;;;4999750;28;20038;-89
2023/02/13 08:15:55;;;;;;;6.13;3.00;;;4.30;99.90;;;;;;4921220;28;20040;-84
2023/02/13 08:53:37;;;;;;;3.80;2.88;;;4.50;99.90;;;;;;5636341;23;20502;-66
2023/02/13 08:56:03;;;;;;;3.75;2.97;;;4.60;99.90;;;;;;4904421;29;20035;-66
2023/02/13 08:58:29;;;;;;;4.20;2.95;;;4.60;99.90;;;;;;4887644;29;20033;-67
2023/02/13 09:00:54;;;;;;;4.90;2.97;;;4.70;99.90;;;;;;4904056;29;20048;-67
2023/02/13 09:03:20;;;;;;;5.22;3.58;;;4.80;99.90;;;;;;4914173;29;20080;-68
2023/02/13 09:05:46;;;;;;;3.97;2.75;;;4.80;99.90;;;;;;4909553;29;20112;-68
2023/02/13 09:08:12;;;;;;;4.40;2.90;;;4.90;99.90;;;;;;4904921;29;20032;-68
2023/02/13 09:10:39;;;;;;;5.97;3.97;;;5.00;99.90;;;;;;4904853;29;20399;-67
2023/02/13 09:13:05;;;;;;;5.50;3.67;;;4.90;99.90;;;;;;4903563;29;20055;-68
2023/02/13 09:15:32;;;;;;;4.28;3.05;;;5.00;99.90;;;;;;4904301;29;20047;-68
2023/02/13 09:17:57;;;;;;;5.63;3.85;;;5.00;99.90;;;;;;4911282;29;20056;-68
2023/02/13 09:20:23;;;;;;;6.47;3.90;;;5.00;99.90;;;;;;4910105;29;20040;-67
2023/02/13 09:22:49;;;;;;;4.68;3.67;;;5.00;99.90;;;;;;4904862;29;20033;-68
2023/02/13 09:25:15;;;;;;;5.53;3.83;;;5.00;99.90;;;;;;4911936;29;20028;-68
2023/02/13 09:27:40;;;;;;;6.72;4.78;;;5.00;99.90;;;;;;4919396;29;20105;-68
2023/02/13 09:30:08;;;;;;;6.90;4.40;;;4.90;99.90;;;;;;4920287;29;20024;-68
2023/02/13 09:32:34;;;;;;;6.15;3.92;;;5.00;99.90;;;;;;4912112;29;20029;-68
2023/02/13 09:35:00;;;;;;;5.82;3.55;;;5.00;99.90;;;;;;4916093;29;20044;-68
2023/02/13 09:37:26;;;;;;;5.63;3.55;;;5.10;99.90;;;;;;4905833;29;20398;-68
2023/02/13 09:39:52;;;;;;;5.18;3.30;;;5.20;99.90;;;;;;4906214;29;20032;-68
2023/02/13 09:42:26;;;;;;;5.85;3.70;;;5.30;99.90;;;;;;4904419;29;20032;-68
2023/02/13 09:44:58;;;;;;;5.53;4.15;;;5.30;99.90;;;;;;4904044;29;20025;-68
2023/02/13 09:47:40;;;;;;;4.85;3.33;;;5.30;99.90;;;;;;4912933;29;20465;-69
2023/02/13 09:50:21;;;;;;;5.85;3.88;;;5.40;99.90;;;;;;4911020;29;20028;-69
2023/02/13 09:52:49;;;;;;;4.80;3.17;;;5.40;99.90;;;;;;4881549;29;20033;-69
2023/02/13 09:55:20;;;;;;;4.80;3.15;;;5.50;99.90;;;;;;4904004;29;20032;-68
2023/02/13 09:58:15;;;;;;;5.97;3.67;;;5.60;99.90;;;;;;4903853;29;20024;-69
2023/02/13 10:00:50;;;;;;;4.40;3.10;;;5.60;99.90;;;;;;4904269;29;20027;-69
2023/02/13 10:03:30;;;;;;;5.57;3.85;;;5.70;99.90;;;;;;4904082;29;20056;-70
2023/02/13 10:06:48;;;;;;;4.85;3.53;;;5.70;99.90;;;;;;4887078;29;20056;-70
2023/02/13 10:10:06;;;;;;;6.10;4.07;;;5.80;99.90;;;;;;4832793;29;20027;-70
2023/02/13 10:12:54;;;;;;;5.43;3.20;;;5.80;99.90;;;;;;4846076;29;20036;-69
2023/02/13 10:15:26;;;;;;;4.50;3.17;;;5.90;99.90;;;;;;4902986;29;20028;-69
2023/02/13 10:17:58;;;;;;;5.63;4.07;;;5.90;99.90;;;;;;4901402;29;20029;-69
2023/02/13 10:20:33;;;;;;;6.60;4.78;;;5.90;99.90;;;;;;4903715;29;20024;-69
2023/02/13 10:23:11;;;;;;;6.72;4.40;;;5.80;99.90;;;;;;4886776;29;20024;-70
2023/02/13 10:25:50;;;;;;;6.60;4.32;;;5.80;99.90;;;;;;4903591;29;20040;-71
2023/02/13 10:28:27;;;;;;;7.80;4.97;;;5.80;99.90;;;;;;4903253;29;20017;-70
2023/02/13 10:30:57;;;;;;;7.72;5.30;;;5.80;99.90;;;;;;4903607;29;20025;-71
2023/02/13 10:33:26;;;;;;;7.20;4.30;;;5.80;99.90;;;;;;4903512;29;20076;-71
2023/02/13 10:36:10;;;;;;;8.13;5.15;;;5.70;99.90;;;;;;4903397;29;20459;-70
2023/02/13 10:39:05;;;;;;;7.93;5.13;;;5.70;99.90;;;;;;4903409;29;20036;-70
2023/02/13 10:41:56;;;;;;;6.05;4.18;;;5.70;99.90;;;;;;4891673;29;20035;-69
2023/02/13 10:44:34;;;;;;;7.13;4.50;;;5.70;99.90;;;;;;4900850;29;20032;-68
2023/02/13 10:47:23;;;;;;;5.07;3.58;;;5.70;99.90;;;;;;4886256;29;20032;-67
2023/02/13 10:50:10;;;;;;;5.18;4.00;;;5.80;99.90;;;;;;4903357;29;20027;-68
2023/02/13 10:52:51;;;;;;;7.45;5.10;;;5.80;99.90;;;;;;4886160;29;20032;-68
2023/02/13 10:55:38;;;;;;;7.45;4.95;;;5.80;99.90;;;;;;4902849;29;20052;-67
2023/02/13 10:58:25;;;;;;;7.75;5.10;;;5.80;99.90;;;;;;4902948;29;20028;-68
2023/02/13 11:01:22;;;;;;;6.35;4.50;;;5.80;99.90;;;;;;4897031;29;20029;-68
2023/02/13 11:04:04;;;;;;;7.18;4.50;;;5.90;99.90;;;;;;4902099;29;20035;-68
2023/02/13 11:06:31;;;;;;;6.95;4.40;;;5.90;99.90;;;;;;4902756;29;20405;-67
2023/02/13 11:08:56;;;;;;;7.90;4.85;;;6.00;99.90;;;;;;4902837;29;20035;-67
2023/02/13 11:11:42;;;;;;;7.75;5.30;;;6.00;99.90;;;;;;4902652;29;20472;-68
2023/02/13 11:14:17;;;;;;;7.47;4.65;;;6.10;99.90;;;;;;4892333;29;20456;-67
2023/02/13 11:16:50;;;;;;;8.07;5.22;;;6.10;99.90;;;;;;4902449;29;20108;-68
2023/02/13 11:19:50;;;;;;;8.38;5.70;;;6.10;99.90;;;;;;4902541;29;20052;-68
2023/02/13 11:22:29;;;;;;;7.57;4.75;;;6.20;99.90;;;;;;4893407;29;20104;-68
2023/02/13 11:25:18;;;;;;;7.13;5.18;;;6.30;99.90;;;;;;4896152;29;20029;-68
2023/02/13 11:27:45;;;;;;;7.20;4.93;;;6.30;99.90;;;;;;4885363;29;20497;-68
2023/02/13 11:30:31;;;;;;;5.35;4.30;;;6.40;99.90;;;;;;4902670;29;20088;-68
2023/02/13 11:32:59;;;;;;;7.13;4.43;;;6.50;99.90;;;;;;4897482;29;20405;-76
2023/02/13 11:35:32;;;;;;;7.97;5.22;;;6.50;99.90;;;;;;4898770;29;20029;-68
2023/02/13 11:38:10;;;;;;;7.40;5.45;;;6.60;99.90;;;;;;4901073;29;20032;-67
2023/02/13 11:40:37;;;;;;;8.25;5.45;;;6.70;99.90;;;;;;4901848;29;20037;-69
2023/02/13 11:43:06;;;;;;;9.13;6.35;;;6.80;99.90;;;;;;4885251;29;20032;-68
2023/02/13 11:45:33;;;;;;;8.15;5.60;;;6.80;99.90;;;;;;4901937;29;20581;-68
2023/02/13 11:47:59;;;;;;;8.23;5.47;;;6.90;99.90;;;;;;4902236;29;20028;-67
2023/02/13 11:50:33;;;;;;;8.30;5.53;;;6.90;99.90;;;;;;4901793;29;21167;-68
2023/02/13 11:53:06;;;;;;;8.77;6.47;;;6.90;99.90;;;;;;4902125;29;20024;-69
2023/02/13 11:55:41;;;;;;;8.90;5.75;;;7.00;99.90;;;;;;4885183;29;20169;-69
2023/02/13 11:58:09;;;;;;;7.90;5.72;;;7.10;99.90;;;;;;4901879;29;20032;-69
2023/02/13 12:00:38;;;;;;;8.50;5.70;;;7.10;99.90;;;;;;4885070;29;20028;-68
2023/02/13 12:03:31;;;;;;;9.15;5.93;;;7.20;99.90;;;;;;4901770;29;20025;-68
2023/02/13 12:06:01;;;;;;;9.38;5.93;;;7.20;99.90;;;;;;4886949;29;20049;-68
2023/02/13 12:08:29;;;;;;;10.57;6.03;;;7.30;99.90;;;;;;4887374;29;20035;-69
2023/02/13 12:10:57;;;;;;;7.78;6.07;;;7.40;99.90;;;;;;4901599;29;20043;-68
2023/02/13 12:13:36;;;;;;;8.27;5.85;;;7.40;99.90;;;;;;4881145;29;20025;-70
2023/02/13 12:16:09;;;;;;;10.00;6.60;;;7.50;99.90;;;;;;4905473;29;20060;-70
2023/02/13 12:18:40;;;;;;;9.40;6.28;;;7.60;99.90;;;;;;4887368;29;20119;-69
2023/02/13 12:21:31;;;;;;;10.10;6.43;;;7.60;99.90;;;;;;4905286;29;20059;-69
2023/02/13 12:24:25;;;;;;;7.07;4.93;;;7.70;99.90;;;;;;4889972;29;20029;-70
2023/02/13 12:27:02;;;;;;;8.57;5.55;;;7.70;99.90;;;;;;4892968;29;20553;-71
2023/02/13 12:29:31;;;;;;;9.15;5.70;;;7.70;99.90;;;;;;4905384;29;20517;-72
2023/02/13 12:32:34;;;;;;;8.23;5.38;;;7.80;99.90;;;;;;4905336;29;20025;-72
2023/02/13 12:35:28;;;;;;;10.83;6.23;;;7.90;99.90;;;;;;4898999;29;20039;-72
2023/02/13 12:38:00;;;;;;;9.07;6.45;;;8.00;99.90;;;;;;4922178;29;20020;-72
2023/02/13 12:40:45;;;;;;;10.00;5.87;;;8.10;99.90;;;;;;4922626;29;20044;-72
2023/02/13 12:43:42;;;;;;;8.85;5.85;;;8.20;99.90;;;;;;4903134;29;20271;-72
2023/02/13 12:46:11;;;;;;;8.15;5.35;;;8.20;99.90;;;;;;4907538;29;20064;-72
2023/02/13 12:49:08;;;;;;;8.38;5.78;;;8.20;99.90;;;;;;4904954;29;20024;-69
2023/02/13 12:52:06;;;;;;;7.57;5.82;;;8.20;99.90;;;;;;4904552;29;20049;-72
2023/02/13 12:54:46;;;;;;;9.02;6.10;;;8.40;99.90;;;;;;4867724;29;20134;-72
2023/02/13 12:57:42;;;;;;;8.02;5.95;;;8.50;99.90;;;;;;4905055;29;20398;-73
2023/02/13 13:00:26;;;;;;;9.07;6.53;;;8.40;99.90;;;;;;4905037;29;20036;-72
2023/02/13 13:03:01;;;;;;;;;;;8.50;99.90;;;;;;4904092;29;20036;-71
2023/02/13 13:05:51;;;;;;;7.57;5.10;;;8.60;99.90;;;;;;4904881;29;19908;-72
2023/02/13 13:08:29;;;;;;;9.68;6.72;;;8.60;99.90;;;;;;4907817;29;20033;-73
2023/02/13 13:11:27;;;;;;;8.27;6.05;;;8.60;99.90;;;;;;4887863;29;20052;-72
2023/02/13 13:14:04;;;;;;;7.63;5.55;;;8.60;99.90;;;;;;4876267;29;20093;-73
2023/02/13 13:17:14;;;;;;;8.82;5.43;;;8.60;99.90;;;;;;4904361;29;20135;-72
2023/02/13 13:19:45;;;;;;;7.15;5.53;;;8.70;99.90;;;;;;4912693;29;20031;-72
2023/02/13 13:22:17;;;;;;;9.15;6.07;;;8.70;99.90;;;;;;4912999;29;20029;-72
2023/02/13 13:24:55;;;;;;;10.52;6.63;;;8.80;99.90;;;;;;4913278;29;20028;-71
2023/02/13 13:27:36;;;;;;;8.57;6.15;;;8.80;99.90;;;;;;4910668;29;20103;-71
2023/02/13 13:30:21;;;;;;;7.93;5.90;;;8.90;99.90;;;;;;4912224;29;20028;-72
2023/02/13 13:32:56;;;;;;;8.50;6.20;;;8.80;99.90;;;;;;4911743;29;20132;-71
2023/02/13 13:35:22;;;;;;;9.23;6.78;;;8.90;99.90;;;;;;4912522;29;20017;-72
2023/02/13 13:38:05;;;;;;;8.55;6.47;;;9.00;99.90;;;;;;4911259;29;20052;-73
2023/02/13 13:40:45;;;;;;;11.15;7.05;;;9.00;99.90;;;;;;4910618;29;20021;-74
2023/02/13 13:43:34;;;;;;;9.13;6.60;;;9.10;99.90;;;;;;4893054;29;20111;-73
2023/02/13 13:46:06;;;;;;;10.15;6.45;;;9.20;99.90;;;;;;4893678;29;20029;-74
2023/02/13 13:48:48;;;;;;;9.85;7.15;;;9.20;99.90;;;;;;4910460;29;20024;-73
2023/02/13 13:51:16;;;;;;;9.52;6.57;;;9.20;99.90;;;;;;4914218;29;20032;-73
2023/02/13 13:54:00;;;;;;;9.55;7.10;;;9.30;99.90;;;;;;4914691;29;20036;-73
2023/02/13 13:56:46;;;;;;;10.82;6.85;;;9.40;99.90;;;;;;4920058;29;20405;-72
2023/02/13 13:59:38;;;;;;;8.52;6.20;;;9.40;99.90;;;;;;4915491;29;20573;-72
2023/02/13 14:02:16;;;;;;;8.90;6.35;;;9.50;99.90;;;;;;4877893;29;20040;-71
2023/02/13 14:05:17;;;;;;;10.43;7.00;;;9.50;99.90;;;;;;4919206;29;20036;-73
2023/02/13 14:07:44;;;;;;;9.23;6.53;;;9.60;99.90;;;;;;4847672;29;20040;-73
2023/02/13 14:10:33;;;;;;;9.70;6.47;;;9.70;99.90;;;;;;4913978;29;20088;-72
2023/02/13 14:13:01;;;;;;;9.30;6.40;;;9.80;99.90;;;;;;4873732;29;20036;-72
2023/02/13 14:15:53;;;;;;;9.20;6.68;;;9.80;99.90;;;;;;4919335;29;20035;-73
2023/02/13 14:18:24;;;;;;;10.13;6.90;;;9.90;99.90;;;;;;4901682;29;20447;-73
2023/02/13 14:20:57;;;;;;;12.45;7.05;;;10.00;99.90;;;;;;4915892;29;20024;-72
2023/02/13 14:23:31;;;;;;;11.68;7.20;;;10.00;99.90;;;;;;4917673;29;20028;-73
2023/02/13 14:26:10;;;;;;;9.10;6.78;;;10.00;99.90;;;;;;4898821;29;20032;-72
2023/02/13 14:28:36;;;;;;;9.13;7.18;;;10.00;99.90;;;;;;4917889;29;20024;-74
2023/02/13 14:31:26;;;;;;;8.35;6.15;;;10.00;99.90;;;;;;4899803;29;20035;-73
2023/02/13 14:34:00;;;;;;;8.68;5.75;;;10.00;99.90;;;;;;4919063;29;20023;-72
2023/02/13 14:36:39;;;;;;;10.65;6.93;;;10.00;99.90;;;;;;4915940;29;20461;-73
2023/02/13 14:39:26;;;;;;;8.43;6.20;;;10.10;99.90;;;;;;4918867;29;20466;-73
2023/02/13 14:41:55;;;;;;;9.38;7.25;;;10.20;99.90;;;;;;4916900;29;20095;-70
2023/02/13 14:44:29;;;;;;;10.85;7.82;;;10.30;99.90;;;;;;4902318;29;20029;-74
2023/02/13 14:46:56;;;;;;;9.85;6.75;;;10.40;99.90;;;;;;4877972;29;20040;-69
2023/02/13 14:49:26;;;;;;;8.95;6.90;;;10.40;99.90;;;;;;4886013;29;20398;-75
2023/02/13 14:52:02;;;;;;;11.00;7.65;;;10.40;99.90;;;;;;4902992;29;20024;-72
2023/02/13 14:54:36;;;;;;;9.85;7.55;;;10.50;99.90;;;;;;4897861;29;20080;-76
2023/02/13 14:57:08;;;;;;;12.02;8.13;;;10.40;99.90;;;;;;4881213;29;20032;-77
2023/02/13 14:59:39;;;;;;;13.85;8.30;;;10.50;99.90;;;;;;4905910;29;20095;-73
2023/02/13 15:02:34;;;;;;;10.35;7.03;;;10.50;99.90;;;;;;4890001;29;20028;-77
2023/02/13 15:05:10;;;;;;;9.40;6.53;;;10.60;99.90;;;;;;4907426;29;20055;-77
2023/02/13 15:07:43;;;;;;;10.85;6.85;;;10.70;99.90;;;;;;4902622;29;20079;-78
2023/02/13 15:10:35;;;;;;;10.75;7.75;;;10.60;99.90;;;;;;4902615;29;20072;-79
2023/02/13 15:13:01;;;;;;;9.70;7.07;;;10.50;99.90;;;;;;4892966;29;20048;-75
2023/02/13 15:15:31;;;;;;;8.73;6.43;;;10.50;99.90;;;;;;4885209;29;20056;-76
2023/02/13 15:18:00;;;;;;;10.02;6.97;;;10.50;99.90;;;;;;4902457;29;20431;-72
2023/02/13 15:20:30;;;;;;;10.80;6.82;;;10.50;99.90;;;;;;4894186;29;20374;-72
2023/02/13 15:22:57;;;;;;;11.73;7.93;;;10.50;99.90;;;;;;4880295;29;20084;-72
2023/02/13 15:25:28;;;;;;;12.52;8.02;;;10.60;99.90;;;;;;4902180;29;20024;-76
2023/02/13 15:27:58;;;;;;;10.57;7.35;;;10.50;99.90;;;;;;4902208;29;20546;-78
2023/02/13 15:30:35;;;;;;;11.07;7.88;;;10.50;99.90;;;;;;4885406;29;20028;-79
2023/02/13 15:33:15;;;;;;;9.90;7.75;;;10.60;99.90;;;;;;4899269;29;20028;-78
2023/02/13 15:35:41;;;;;;;10.43;7.38;;;10.70;99.90;;;;;;4876896;29;20029;-79
2023/02/13 15:38:18;;;;;;;9.98;7.25;;;10.70;99.90;;;;;;4885446;29;20064;-78
2023/02/13 15:40:44;;;;;;;10.55;7.00;;;10.70;99.90;;;;;;4885155;29;20028;-77
2023/02/13 15:43:24;;;;;;;9.38;6.80;;;10.70;99.90;;;;;;4885535;29;20065;-76
2023/02/13 15:45:50;;;;;;;12.25;7.32;;;10.70;99.90;;;;;;4916021;29;20042;-76
2023/02/13 15:48:16;;;;;;;8.98;6.78;;;10.80;99.90;;;;;;4916405;29;20028;-74
2023/02/13 15:50:43;;;;;;;9.40;6.55;;;10.90;99.90;;;;;;4914993;29;20068;-74
2023/02/13 15:53:16;;;;;;;9.63;6.88;;;11.00;99.90;;;;;;4896878;29;20123;-74
2023/02/13 15:55:58;;;;;;;9.10;6.63;;;11.00;99.90;;;;;;4906227;29;20486;-73
2023/02/13 15:58:29;;;;;;;9.18;6.80;;;11.00;99.90;;;;;;4912987;29;20084;-73
2023/02/13 16:00:58;;;;;;;9.90;6.50;;;11.00;99.90;;;;;;4899448;29;20032;-73
2023/02/13 16:03:26;;;;;;;11.20;7.05;;;11.00;99.90;;;;;;4914002;29;20029;-73
2023/02/13 16:05:52;;;;;;;10.52;7.13;;;11.10;99.90;;;;;;4895336;29;20113;-73
2023/02/13 16:08:31;;;;;;;12.05;7.20;;;11.20;99.90;;;;;;4894712;29;20056;-73
2023/02/13 16:11:15;;;;;;;9.00;6.70;;;11.30;99.90;;;;;;4900441;29;20390;-73
2023/02/13 16:14:11;;;;;;;8.95;6.50;;;11.40;99.90;;;;;;4901455;29;20036;-74
2023/02/13 16:16:50;;;;;;;9.50;6.90;;;11.40;99.90;;;;;;4901685;29;20032;-73
2023/02/13 16:19:30;;;;;;;9.43;6.47;;;11.40;99.90;;;;;;4908479;29;20111;-71
2023/02/13 16:21:59;;;;;;;10.18;6.70;;;11.30;99.90;;;;;;4913797;29;20103;-71
2023/02/13 16:24:26;;;;;;;9.35;7.13;;;11.40;99.90;;;;;;4912398;29;20024;-70
2023/02/13 16:26:52;;;;;;;9.68;7.47;;;11.30;99.90;;;;;;4913538;29;20020;-71
2023/02/13 16:29:27;;;;;;;9.82;7.18;;;11.40;99.90;;;;;;4897268;29;20028;-71
2023/02/13 16:32:03;;;;;;;10.32;7.43;;;11.30;99.90;;;;;;4898577;29;20044;-71
2023/02/13 16:34:31;;;;;;;11.30;7.53;;;11.30;99.90;;;;;;4915784;29;20057;-70
2023/02/13 16:36:56;;;;;;;9.38;6.97;;;11.30;99.90;;;;;;4915318;29;20456;-71
2023/02/13 16:39:31;;;;;;;11.13;7.80;;;11.30;99.90;;;;;;4913082;29;20103;-72
2023/02/13 16:41:59;;;;;;;10.38;7.55;;;11.30;99.90;;;;;;4907601;29;20052;-72
2023/02/13 16:44:26;;;;;;;10.10;7.75;;;11.30;99.90;;;;;;4884670;29;20088;-69
2023/02/13 16:46:53;;;;;;;9.40;7.10;;;11.30;99.90;;;;;;4901234;29;20081;-70
2023/02/13 16:49:22;;;;;;;10.13;7.07;;;11.30;99.90;;;;;;4884624;29;20657;-68
2023/02/13 16:52:06;;;;;;;8.23;6.65;;;11.20;99.90;;;;;;4884520;29;20029;-68
2023/02/13 16:54:57;;;;;;;10.32;7.60;;;11.20;99.90;;;;;;4884552;29;20052;-68
2023/02/13 16:57:34;;;;;;;8.98;6.80;;;11.20;99.90;;;;;;4901122;29;20024;-68
2023/02/13 17:00:00;;;;;;;10.50;7.68;;;11.10;99.90;;;;;;4901558;29;20033;-68
2023/02/13 17:02:33;;;;;;;11.25;8.48;;;11.10;99.90;;;;;;4903908;29;20043;-68
2023/02/13 17:05:08;;;;;;;12.70;8.90;;;11.00;99.90;;;;;;4904957;29;20032;-68
2023/02/13 17:07:35;;;;;;;12.73;7.72;;;11.00;99.90;;;;;;4904775;29;20028;-68
2023/02/13 17:10:04;;;;;;;9.57;7.00;;;10.90;99.90;;;;;;4904589;29;20510;-68
2023/02/13 17:12:33;;;;;;;10.93;8.00;;;10.80;99.90;;;;;;4902926;29;20028;-68
2023/02/13 17:14:59;;;;;;;11.63;8.63;;;10.70;99.90;;;;;;4901956;29;20056;-68
2023/02/13 17:17:30;;;;;;;10.65;7.97;;;10.60;99.90;;;;;;4892451;29;20032;-69
2023/02/13 17:19:56;;;;;;;11.13;8.20;;;10.50;99.90;;;;;;4892147;29;20056;-68
2023/02/13 17:22:39;;;;;;;11.30;8.25;;;10.40;99.90;;;;;;4904964;29;20088;-68
2023/02/13 17:25:08;;;;;;;11.27;8.50;;;10.30;99.90;;;;;;4903076;29;20028;-69
2023/02/13 17:27:34;;;;;;;10.88;7.85;;;10.20;99.90;;;;;;4904778;29;20071;-72
2023/02/13 17:30:00;;;;;;;11.90;8.40;;;10.20;99.90;;;;;;4892833;29;20024;-73
2023/02/13 17:32:26;;;;;;;13.75;8.40;;;10.10;99.90;;;;;;4908835;29;20032;-70
2023/02/13 17:34:52;;;;;;;11.93;8.48;;;10.10;99.90;;;;;;4904716;29;20088;-75
2023/02/13 17:37:24;;;;;;;14.65;9.48;;;10.00;99.90;;;;;;4896172;29;20044;-71
2023/02/13 17:39:50;;;;;;;11.52;8.43;;;9.90;99.90;;;;;;4903989;29;20032;-72
2023/02/13 17:42:27;;;;;;;11.88;8.80;;;9.80;99.90;;;;;;4887521;29;20087;-74
2023/02/13 17:44:55;;;;;;;11.95;8.23;;;9.70;99.90;;;;;;4902573;29;20462;-75
2023/02/13 17:47:21;;;;;;;11.60;8.38;;;9.70;99.90;;;;;;4905975;29;20401;-74
2023/02/13 17:49:47;;;;;;;10.55;8.50;;;9.60;99.90;;;;;;4904265;29;20025;-75
2023/02/13 17:52:16;;;;;;;14.85;8.23;;;9.60;99.90;;;;;;4904227;29;20039;-76
2023/02/13 17:54:43;;;;;;;13.15;8.57;;;9.50;99.90;;;;;;4903826;29;20048;-75
2023/02/13 17:57:10;;;;;;;12.80;8.95;;;9.50;99.90;;;;;;4906501;29;20493;-77
2023/02/13 17:59:36;;;;;;;14.57;9.13;;;9.50;99.90;;;;;;4897788;29;20032;-77
2023/02/13 18:02:02;;;;;;;12.40;8.70;;;9.40;99.90;;;;;;4918552;29;20037;-80
2023/02/13 18:04:28;;;;;;;12.23;8.25;;;9.40;99.90;;;;;;4915998;29;20040;-77
2023/02/13 18:06:54;;;;;;;11.98;8.52;;;9.30;99.90;;;;;;4917353;29;20043;-81
2023/02/13 18:09:20;;;;;;;13.68;8.75;;;9.30;99.90;;;;;;4917268;29;20481;-79
2023/02/13 18:11:47;;;;;;;11.57;8.38;;;9.30;99.90;;;;;;4899746;29;20020;-81
2023/02/13 18:14:13;;;;;;;13.90;9.15;;;9.30;99.90;;;;;;4920769;29;20362;-81
2023/02/13 18:16:39;;;;;;;13.48;9.13;;;9.20;99.90;;;;;;4914894;29;20040;-79
2023/02/13 18:19:05;;;;;;;13.38;9.38;;;9.20;99.90;;;;;;4917640;29;20076;-80
2023/02/13 18:21:30;;;;;;;13.50;9.00;;;9.20;99.90;;;;;;4917715;29;20433;-80
2023/02/13 18:23:56;;;;;;;14.70;9.68;;;9.20;99.90;;;;;;4918210;29;20485;-80
2023/02/13 18:26:22;;;;;;;13.43;9.40;;;9.20;99.90;;;;;;4918021;29;20033;-76
2023/02/13 18:28:51;;;;;;;12.18;9.48;;;9.10;99.90;;;;;;4916782;29;20415;-78
2023/02/13 18:31:17;;;;;;;13.77;9.48;;;9.10;99.90;;;;;;4900082;29;20052;-80
2023/02/13 18:33:43;;;;;;;15.27;10.50;;;9.10;99.90;;;;;;4916610;29;21243;-77
2023/02/13 18:36:13;;;;;;;15.13;10.18;;;9.10;99.90;;;;;;4910771;29;20032;-79
2023/02/13 18:38:38;;;;;;;14.07;9.73;;;9.10;99.90;;;;;;4916177;29;20031;-76
2023/02/13 18:41:04;;;;;;;14.55;9.93;;;9.10;99.90;;;;;;4918271;29;20029;-78
2023/02/13 18:43:30;;;;;;;14.00;9.57;;;9.10;99.90;;;;;;4918130;29;20035;-78
2023/02/13 18:45:55;;;;;;;15.68;10.82;;;9.10;99.90;;;;;;4899449;29;20035;-77
2023/02/13 18:48:22;;;;;;;16.08;9.88;;;9.10;99.90;;;;;;4899242;29;20028;-78
2023/02/13 18:50:48;;;;;;;14.40;10.38;;;9.00;99.90;;;;;;4909081;29;20033;-77
2023/02/13 18:53:13;;;;;;;15.40;9.68;;;9.00;99.90;;;;;;4916110;29;20573;-77
2023/02/13 18:55:39;;;;;;;13.50;9.93;;;8.90;99.90;;;;;;4917469;29;20028;-76
2023/02/13 18:58:06;;;;;;;17.23;11.55;;;8.90;99.90;;;;;;4901091;29;20051;-77
2023/02/13 19:00:32;;;;;;;15.38;10.02;;;8.80;99.90;;;;;;4895392;29;20100;-77
2023/02/13 19:02:58;;;;;;;14.80;10.15;;;8.80;99.90;;;;;;4917162;29;20456;-78
2023/02/13 19:05:24;;;;;;;14.15;9.73;;;8.80;99.90;;;;;;4911499;29;20031;-77
2023/02/13 19:07:50;;;;;;;13.60;10.23;;;8.80;99.90;;;;;;4915512;29;20024;-77
2023/02/13 19:10:16;;;;;;;14.98;10.23;;;8.80;99.90;;;;;;4912636;29;20035;-77
2023/02/13 19:12:42;;;;;;;14.38;9.15;;;8.80;99.90;;;;;;4915170;29;20481;-77
2023/02/13 19:15:08;;;;;;;13.50;9.77;;;8.80;99.90;;;;;;4897319;29;20044;-76
2023/02/13 19:17:36;;;;;;;14.85;9.73;;;8.70;99.90;;;;;;4907130;29;20055;-76
2023/02/13 19:20:02;;;;;;;14.73;10.02;;;8.60;99.90;;;;;;4892339;29;20060;-76
2023/02/13 19:22:28;;;;;;;14.30;10.23;;;8.60;99.90;;;;;;4898077;29;20055;-76
2023/02/13 19:24:54;;;;;;;13.77;9.90;;;8.60;99.90;;;;;;4893376;29;20036;-76
2023/02/13 19:27:19;;;;;;;15.07;9.93;;;8.60;99.90;;;;;;4887843;29;20029;-76
2023/02/13 19:29:46;;;;;;;14.07;10.13;;;8.60;99.90;;;;;;4911278;29;20024;-77
2023/02/13 19:32:11;;;;;;;14.77;10.43;;;8.60;99.90;;;;;;4912803;29;20036;-77
2023/02/13 19:34:37;;;;;;;16.25;10.48;;;8.50;99.90;;;;;;4905026;29;20025;-78
2023/02/13 19:37:03;;;;;;;12.88;9.20;;;8.50;99.90;;;;;;4894039;29;20028;-78
2023/02/13 19:39:29;;;;;;;15.07;10.57;;;8.50;99.90;;;;;;4891698;29;20037;-78
2023/02/13 19:41:55;;;;;;;14.98;10.30;;;8.50;99.90;;;;;;4908224;29;20028;-77
2023/02/13 19:44:24;;;;;;;13.32;9.70;;;8.50;99.90;;;;;;4907174;29;20116;-77
2023/02/13 19:46:50;;;;;;;16.15;10.48;;;8.40;99.90;;;;;;4909922;29;20033;-77
2023/02/13 19:49:15;;;;;;;15.40;10.02;;;8.40;99.90;;;;;;4893348;29;20100;-79
2023/02/13 19:51:44;;;;;;;17.25;10.60;;;8.40;99.90;;;;;;4884854;29;20039;-77
2023/02/13 19:54:11;;;;;;;17.38;11.65;;;8.40;99.90;;;;;;4894406;29;20072;-81
2023/02/13 19:56:38;;;;;;;16.25;11.55;;;8.40;99.90;;;;;;4902174;29;20401;-76
2023/02/13 19:59:11;;;;;;;15.45;11.00;;;8.40;99.90;;;;;;4910515;29;20035;-81
2023/02/13 20:08:22;;;;;;;15.60;10.18;;;8.30;99.90;;;;;;4903144;29;20066;-83
2023/02/13 20:10:47;;;;;;;14.98;10.68;;;8.40;99.90;;;;;;4890680;29;20032;-79
2023/02/13 20:13:13;;;;;;;16.27;10.82;;;8.30;99.90;;;;;;4889802;29;20168;-83
2023/02/13 20:19:29;;;;;;;16.25;9.75;;;8.30;99.90;;;;;;4904540;29;20071;-85
2023/02/13 20:22:00;;;;;;;14.18;10.18;;;8.20;99.90;;;;;;4905038;29;20063;-82
2023/02/13 20:24:26;;;;;;;14.80;9.98;;;8.20;99.90;;;;;;4897417;29;20035;-78
2023/02/13 20:26:55;;;;;;;15.52;11.18;;;8.20;99.90;;;;;;4909752;29;20509;-79
2023/02/13 20:29:20;;;;;;;14.88;10.40;;;8.10;99.90;;;;;;4905990;29;20028;-81